Time;durP1;ratioP1;P1;durP2;ratioP2;P2;SDS_P1;SDS_P2;PMS_P1;PMS_P2;Temp;Humidity;BMP_temperature;BMP_pressure;BME280_temperature;BME280_humidity;BME280_pressure;Samples;Min_cycle;Max_cycle;Signal;HPM_P1;HPM_P2
2021/11/27 00:00:48;;;;;;;4.95;1.60;;;5.80;99.90;;;;;;5016755;28;20025;-73
2021/11/27 00:03:15;;;;;;;4.28;1.00;;;5.80;99.90;;;;;;5016423;28;20045;-75
2021/11/27 00:05:42;;;;;;;3.80;1.10;;;5.90;99.90;;;;;;5016360;28;20113;-75
2021/11/27 00:08:27;;;;;;;2.17;0.88;;;5.90;99.90;;;;;;5016651;28;20029;-71
2021/11/27 00:10:55;;;;;;;5.07;2.15;;;5.90;99.90;;;;;;5016291;28;20087;-72
2021/11/27 00:13:22;;;;;;;6.32;2.08;;;6.00;99.90;;;;;;5016191;28;20034;-70
2021/11/27 00:15:49;;;;;;;4.70;1.33;;;6.00;99.90;;;;;;5016220;28;20014;-72
2021/11/27 00:18:16;;;;;;;5.53;1.60;;;6.10;99.90;;;;;;5016164;28;20026;-71
2021/11/27 00:20:48;;;;;;;5.75;2.08;;;6.00;99.90;;;;;;5016141;28;20045;-72
2021/11/27 00:23:15;;;;;;;6.97;1.60;;;6.00;99.90;;;;;;5016113;28;20030;-71
2021/11/27 00:25:41;;;;;;;3.65;0.90;;;6.00;99.90;;;;;;5016045;28;20080;-73
2021/11/27 00:28:07;;;;;;;10.32;1.83;;;6.00;99.90;;;;;;5016001;28;20479;-72
2021/11/27 00:30:36;;;;;;;4.20;1.40;;;6.00;99.90;;;;;;5015935;28;20507;-75
2021/11/27 00:33:02;;;;;;;5.72;1.17;;;6.10;99.90;;;;;;5015820;28;20361;-73
2021/11/27 00:35:28;;;;;;;7.13;1.52;;;6.10;99.90;;;;;;5015759;28;20014;-73
2021/11/27 00:37:56;;;;;;;10.88;1.83;;;6.10;99.90;;;;;;5016027;28;20036;-72
2021/11/27 00:40:22;;;;;;;8.48;1.45;;;6.00;99.90;;;;;;5016285;28;20017;-72
2021/11/27 00:42:48;;;;;;;3.58;0.90;;;5.90;99.90;;;;;;5015638;28;20434;-73
2021/11/27 00:45:16;;;;;;;5.38;1.25;;;5.70;99.90;;;;;;5015301;28;20117;-72
2021/11/27 00:47:47;;;;;;;3.92;1.00;;;5.40;99.90;;;;;;5015868;28;20030;-73
2021/11/27 00:50:15;;;;;;;4.72;1.00;;;5.30;99.90;;;;;;5015570;28;20029;-72
2021/11/27 00:52:41;;;;;;;2.67;0.82;;;5.30;99.90;;;;;;5015443;28;20038;-73
2021/11/27 00:55:08;;;;;;;2.72;0.90;;;5.20;99.90;;;;;;5016041;28;20022;-71
2021/11/27 00:57:34;;;;;;;3.92;0.80;;;5.20;99.90;;;;;;5015961;28;20029;-71
2021/11/27 00:59:59;;;;;;;1.80;0.70;;;5.30;99.90;;;;;;5015340;28;20021;-71
2021/11/27 01:02:25;;;;;;;2.50;0.65;;;5.30;99.90;;;;;;5015278;28;20030;-72
2021/11/27 01:04:51;;;;;;;1.92;0.65;;;5.30;99.90;;;;;;5015301;28;20152;-72
2021/11/27 01:07:17;;;;;;;6.85;1.90;;;5.40;99.90;;;;;;5015202;28;20026;-72
2021/11/27 01:09:42;;;;;;;6.70;1.75;;;5.40;99.90;;;;;;5015481;28;20393;-72
2021/11/27 01:12:08;;;;;;;3.30;1.48;;;5.40;99.90;;;;;;5015083;28;20041;-72
2021/11/27 01:14:35;;;;;;;6.40;1.23;;;5.40;99.90;;;;;;5015130;28;20503;-75
2021/11/27 01:17:06;;;;;;;2.78;1.02;;;5.50;99.90;;;;;;5015042;28;20049;-73
2021/11/27 01:19:34;;;;;;;8.23;1.52;;;5.40;99.90;;;;;;5015073;28;20053;-72
2021/11/27 01:22:10;;;;;;;4.40;1.20;;;5.40;99.90;;;;;;5015194;28;20100;-73
2021/11/27 01:24:37;;;;;;;4.70;2.53;;;5.50;99.90;;;;;;5015242;28;20105;-73
2021/11/27 01:27:02;;;;;;;4.40;1.35;;;5.50;99.90;;;;;;5014849;28;20026;-73
2021/11/27 01:29:28;;;;;;;5.28;1.55;;;5.50;99.90;;;;;;5014827;28;20554;-72
2021/11/27 01:31:54;;;;;;;9.95;2.10;;;5.50;99.90;;;;;;5013436;28;20037;-73
2021/11/27 01:34:20;;;;;;;8.35;2.10;;;5.60;99.90;;;;;;5014723;28;20022;-71
2021/11/27 01:36:46;;;;;;;6.82;1.80;;;5.60;99.90;;;;;;5014454;28;20064;-72
2021/11/27 01:39:12;;;;;;;8.30;2.05;;;5.60;99.90;;;;;;5015159;28;20065;-73
2021/11/27 01:41:39;;;;;;;6.80;1.50;;;5.60;99.90;;;;;;5014805;28;20049;-71
2021/11/27 01:44:05;;;;;;;9.60;2.30;;;5.50;99.90;;;;;;5014571;28;20089;-71
2021/11/27 01:46:32;;;;;;;6.78;1.83;;;5.50;99.90;;;;;;5012810;28;20050;-72
2021/11/27 01:48:57;;;;;;;4.80;1.60;;;5.40;99.90;;;;;;5014501;28;20018;-71
2021/11/27 01:51:24;;;;;;;5.45;1.92;;;5.40;99.90;;;;;;5014610;28;20067;-73
2021/11/27 01:53:57;;;;;;;8.18;2.72;;;5.40;99.90;;;;;;5014363;28;20021;-74
2021/11/27 01:56:27;;;;;;;10.20;1.85;;;5.50;99.90;;;;;;5014105;28;20022;-72
2021/11/27 01:58:54;;;;;;;6.90;2.63;;;5.50;99.90;;;;;;5014816;28;20507;-72
2021/11/27 02:01:23;;;;;;;5.65;2.20;;;5.50;99.90;;;;;;5014255;28;20022;-72
2021/11/27 02:03:50;;;;;;;7.77;2.50;;;5.50;99.90;;;;;;5014518;28;20028;-72
2021/11/27 02:06:18;;;;;;;7.20;2.28;;;5.50;99.90;;;;;;5014173;28;20025;-71
2021/11/27 02:08:45;;;;;;;9.63;1.95;;;5.40;99.90;;;;;;5014129;28;20044;-71
2021/11/27 02:11:14;;;;;;;5.00;2.13;;;5.40;99.90;;;;;;5014374;28;20034;-71
2021/11/27 02:13:40;;;;;;;7.68;2.35;;;5.40;99.90;;;;;;5013963;28;20021;-71
2021/11/27 02:16:06;;;;;;;6.00;1.50;;;5.50;99.90;;;;;;5013980;28;20024;-71
2021/11/27 02:18:33;;;;;;;9.07;1.70;;;5.50;99.90;;;;;;5013939;28;20407;-72
2021/11/27 02:21:11;;;;;;;7.43;1.42;;;5.50;99.90;;;;;;5014222;28;20411;-73
2021/11/27 02:23:37;;;;;;;10.15;1.95;;;5.50;99.90;;;;;;5014363;28;20124;-70
2021/11/27 02:26:07;;;;;;;7.88;1.80;;;5.40;99.90;;;;;;5014140;28;20072;-71
2021/11/27 02:28:36;;;;;;;12.52;1.90;;;5.40;99.90;;;;;;5013846;28;20041;-71
2021/11/27 02:31:02;;;;;;;8.68;2.15;;;5.40;99.90;;;;;;5014318;28;20029;-71
2021/11/27 02:33:28;;;;;;;5.50;1.50;;;5.30;99.90;;;;;;5013687;28;20034;-70
2021/11/27 02:35:54;;;;;;;12.18;2.28;;;5.20;99.90;;;;;;5014232;28;20026;-71
2021/11/27 02:38:19;;;;;;;10.07;2.50;;;5.30;99.90;;;;;;5013911;28;20488;-71
2021/11/27 02:40:45;;;;;;;8.60;2.92;;;5.30;99.90;;;;;;5013886;28;20076;-73
2021/11/27 02:43:11;;;;;;;9.50;3.40;;;5.30;99.90;;;;;;5013791;28;20029;-75
2021/11/27 02:45:37;;;;;;;8.85;2.40;;;5.30;99.90;;;;;;5013403;28;20046;-73
2021/11/27 02:48:04;;;;;;;9.52;1.67;;;5.40;99.90;;;;;;5013543;28;20030;-74
2021/11/27 02:50:29;;;;;;;8.20;2.15;;;5.40;99.90;;;;;;5013789;28;20040;-73
2021/11/27 02:52:55;;;;;;;8.48;1.83;;;5.40;99.90;;;;;;5013424;28;20022;-73
2021/11/27 02:55:21;;;;;;;8.52;2.13;;;5.30;99.90;;;;;;5013428;28;20033;-72
2021/11/27 02:57:47;;;;;;;9.80;1.70;;;5.30;99.90;;;;;;5013725;28;20026;-72
2021/11/27 03:00:18;;;;;;;9.02;1.60;;;5.30;99.90;;;;;;5013394;28;20384;-73
2021/11/27 03:02:45;;;;;;;6.47;1.65;;;5.20;99.90;;;;;;5014021;28;20030;-71
2021/11/27 03:05:11;;;;;;;11.77;1.92;;;5.20;99.90;;;;;;5013392;28;20026;-71
2021/11/27 03:07:36;;;;;;;7.97;2.60;;;5.20;99.90;;;;;;5013658;28;20373;-74
2021/11/27 03:10:04;;;;;;;5.68;1.38;;;5.10;99.90;;;;;;5016806;28;20033;-72
2021/11/27 03:12:30;;;;;;;5.93;1.95;;;5.20;99.90;;;;;;5017311;28;20472;-71
2021/11/27 03:14:56;;;;;;;7.75;1.65;;;5.20;99.90;;;;;;5017343;28;20029;-72
2021/11/27 03:17:21;;;;;;;10.10;1.70;;;5.20;99.90;;;;;;5017303;28;20491;-72
2021/11/27 03:19:47;;;;;;;7.90;1.85;;;5.20;99.90;;;;;;5017243;28;20029;-71
2021/11/27 03:22:15;;;;;;;6.47;2.47;;;5.20;99.90;;;;;;5017183;28;20439;-72
2021/11/27 03:24:41;;;;;;;7.80;2.13;;;5.20;99.90;;;;;;5017149;28;20544;-73
2021/11/27 03:27:07;;;;;;;9.60;2.60;;;5.20;99.90;;;;;;5017123;28;20109;-70
2021/11/27 03:29:33;;;;;;;9.07;2.65;;;5.20;99.90;;;;;;5017065;28;20484;-72
2021/11/27 03:32:07;;;;;;;7.80;2.40;;;5.30;99.90;;;;;;5017024;28;20029;-69
2021/11/27 03:34:33;;;;;;;6.78;2.15;;;5.30;99.90;;;;;;5017287;28;20022;-72
2021/11/27 03:36:58;;;;;;;11.30;3.13;;;5.30;99.90;;;;;;5017251;28;20060;-74
2021/11/27 03:39:24;;;;;;;9.05;2.72;;;5.30;99.90;;;;;;5017177;28;20472;-72
2021/11/27 03:41:50;;;;;;;8.07;1.90;;;5.40;99.90;;;;;;5016804;28;20030;-72
2021/11/27 03:44:17;;;;;;;5.45;1.83;;;5.40;99.90;;;;;;5016651;28;20022;-73
2021/11/27 03:46:42;;;;;;;8.07;2.38;;;5.40;99.90;;;;;;5015256;28;20506;-71
2021/11/27 03:49:08;;;;;;;14.65;2.67;;;5.40;99.90;;;;;;5016729;28;20026;-72
2021/11/27 03:51:34;;;;;;;10.55;2.30;;;5.40;99.90;;;;;;5016629;28;20109;-72
2021/11/27 03:54:00;;;;;;;13.40;1.80;;;5.30;99.90;;;;;;5016641;28;20014;-72
2021/11/27 03:56:29;;;;;;;13.30;2.22;;;5.30;99.90;;;;;;5016540;28;20030;-73
2021/11/27 03:58:59;;;;;;;10.75;2.03;;;5.30;99.90;;;;;;5016832;28;20037;-71
2021/11/27 04:01:25;;;;;;;7.93;2.00;;;5.40;99.90;;;;;;5017128;28;20391;-73
2021/11/27 04:03:54;;;;;;;8.95;2.03;;;5.30;99.90;;;;;;5016693;28;20037;-72
2021/11/27 04:06:20;;;;;;;7.07;1.90;;;5.30;99.90;;;;;;5016657;28;20061;-72
2021/11/27 04:08:46;;;;;;;6.50;1.50;;;5.30;99.90;;;;;;5016654;28;20417;-71
2021/11/27 04:11:13;;;;;;;10.02;1.92;;;5.30;99.90;;;;;;5016597;28;20101;-73
2021/11/27 04:13:39;;;;;;;10.70;2.10;;;5.30;99.90;;;;;;5016144;28;20040;-74
2021/11/27 04:16:05;;;;;;;10.60;1.98;;;5.30;99.90;;;;;;5016195;28;20029;-71
2021/11/27 04:18:31;;;;;;;7.45;1.92;;;5.30;99.90;;;;;;5016704;28;20070;-73
2021/11/27 04:20:57;;;;;;;9.52;1.73;;;5.30;99.90;;;;;;5015607;28;20133;-71
2021/11/27 04:23:24;;;;;;;13.32;2.45;;;5.30;99.90;;;;;;5016329;28;20033;-76
2021/11/27 04:25:50;;;;;;;8.55;1.98;;;5.30;99.90;;;;;;5016036;28;20029;-71
2021/11/27 04:28:16;;;;;;;12.73;2.95;;;5.30;99.90;;;;;;5016328;28;20499;-72
2021/11/27 04:30:42;;;;;;;13.55;2.40;;;5.20;99.90;;;;;;5015904;28;20026;-72
2021/11/27 04:33:08;;;;;;;8.63;3.00;;;5.20;99.90;;;;;;5016382;28;20029;-73
2021/11/27 04:35:34;;;;;;;9.07;1.88;;;5.30;99.90;;;;;;5015879;28;20469;-73
2021/11/27 04:38:00;;;;;;;6.97;1.80;;;5.30;99.90;;;;;;5015856;28;20022;-74
2021/11/27 04:40:27;;;;;;;8.07;2.20;;;5.40;99.90;;;;;;5015743;28;20022;-73
2021/11/27 04:42:53;;;;;;;8.52;1.70;;;5.40;99.90;;;;;;5016002;28;20404;-71
2021/11/27 04:45:19;;;;;;;6.05;1.88;;;5.50;99.90;;;;;;5015461;28;20058;-71
2021/11/27 04:47:45;;;;;;;7.45;1.80;;;5.40;99.90;;;;;;5015611;28;20104;-72
2021/11/27 04:50:12;;;;;;;8.02;2.00;;;5.40;99.90;;;;;;5015552;28;20104;-76
2021/11/27 04:52:38;;;;;;;6.78;1.70;;;5.40;99.90;;;;;;5015986;28;20033;-73
2021/11/27 04:55:06;;;;;;;7.45;1.88;;;5.50;99.90;;;;;;5015723;28;20022;-73
2021/11/27 04:57:32;;;;;;;7.18;2.38;;;5.50;99.90;;;;;;5014144;28;20048;-71
2021/11/27 04:59:57;;;;;;;11.45;1.88;;;5.60;99.90;;;;;;5015342;28;20451;-72
2021/11/27 05:02:23;;;;;;;6.75;1.10;;;5.60;99.90;;;;;;5015399;28;20049;-71
2021/11/27 05:04:49;;;;;;;5.75;1.70;;;5.60;99.90;;;;;;5015351;28;20036;-71
2021/11/27 05:07:15;;;;;;;11.65;2.00;;;5.70;99.90;;;;;;5015283;28;20034;-74
2021/11/27 05:09:41;;;;;;;6.40;1.55;;;5.70;99.90;;;;;;5015228;28;20109;-75
2021/11/27 05:12:07;;;;;;;5.00;1.15;;;5.70;99.90;;;;;;5015356;28;20543;-71
2021/11/27 05:14:33;;;;;;;7.03;1.17;;;5.70;99.90;;;;;;5015072;28;20041;-73
2021/11/27 05:16:59;;;;;;;3.72;0.90;;;5.70;99.90;;;;;;5015064;28;20431;-72
2021/11/27 05:19:24;;;;;;;8.25;1.17;;;5.70;99.90;;;;;;5015018;28;20034;-70
2021/11/27 05:21:50;;;;;;;1.92;0.65;;;5.70;99.90;;;;;;5014997;28;20018;-70
2021/11/27 05:24:16;;;;;;;6.82;1.20;;;5.70;99.90;;;;;;5015513;28;20034;-72
2021/11/27 05:26:41;;;;;;;4.28;0.65;;;5.70;99.90;;;;;;5015194;28;20026;-73
2021/11/27 05:29:07;;;;;;;4.78;0.82;;;5.70;99.90;;;;;;5015161;28;20061;-73
2021/11/27 05:31:33;;;;;;;5.43;1.27;;;5.60;99.90;;;;;;5014151;28;20033;-73
2021/11/27 05:36:41;;;;;;;4.05;1.17;;;5.50;99.90;;;;;;5015083;28;20029;-72
2021/11/27 05:39:07;;;;;;;5.68;1.10;;;5.50;99.90;;;;;;5015013;28;20022;-69
2021/11/27 05:41:32;;;;;;;4.35;1.13;;;5.40;99.90;;;;;;5014620;28;20376;-71
2021/11/27 05:43:58;;;;;;;2.53;1.05;;;5.40;99.90;;;;;;5014522;28;20026;-73
2021/11/27 05:46:25;;;;;;;5.43;1.75;;;5.40;99.90;;;;;;5014189;28;20052;-74
2021/11/27 05:48:50;;;;;;;5.47;1.48;;;5.50;99.90;;;;;;5014531;28;20021;-74
2021/11/27 05:51:17;;;;;;;3.97;1.80;;;5.30;99.90;;;;;;5014735;28;20021;-75
2021/11/27 05:53:43;;;;;;;3.53;1.25;;;5.40;99.90;;;;;;5014344;28;20036;-70
2021/11/27 05:56:09;;;;;;;3.60;1.17;;;5.30;99.90;;;;;;5014360;28;20398;-73
2021/11/27 05:58:35;;;;;;;2.15;1.13;;;5.40;99.90;;;;;;5014363;28;20025;-72
2021/11/27 06:01:05;;;;;;;2.88;1.05;;;5.40;99.90;;;;;;5014318;28;20026;-72
2021/11/27 06:03:31;;;;;;;;;;;5.40;99.90;;;;;;5014759;28;20030;-73
2021/11/27 06:05:57;;;;;;;3.28;1.08;;;5.50;99.90;;;;;;5014233;28;19905;-72
2021/11/27 06:08:22;;;;;;;2.83;0.98;;;5.40;99.90;;;;;;5014175;28;20025;-71
2021/11/27 06:10:48;;;;;;;5.32;1.20;;;5.40;99.90;;;;;;5012814;28;20426;-75
2021/11/27 06:13:14;;;;;;;3.30;1.20;;;5.40;99.90;;;;;;5014069;28;20022;-70
2021/11/27 06:15:40;;;;;;;5.78;1.13;;;5.40;99.90;;;;;;5014026;28;20026;-75
2021/11/27 06:18:05;;;;;;;5.47;1.52;;;5.40;99.90;;;;;;5014049;28;20022;-72
2021/11/27 06:20:31;;;;;;;4.28;1.40;;;5.40;99.90;;;;;;5013958;28;20022;-69
2021/11/27 06:22:57;;;;;;;6.80;1.13;;;5.40;99.90;;;;;;5013926;28;20040;-73
2021/11/27 06:25:24;;;;;;;7.97;2.05;;;5.40;99.90;;;;;;5014153;28;20057;-72
2021/11/27 06:27:50;;;;;;;7.00;1.30;;;5.40;99.90;;;;;;5014128;28;20056;-73
2021/11/27 06:30:16;;;;;;;5.50;1.45;;;5.50;99.90;;;;;;5014113;28;20100;-73
2021/11/27 06:32:41;;;;;;;7.78;1.13;;;5.50;99.90;;;;;;5013707;28;20033;-72
2021/11/27 06:35:07;;;;;;;6.82;1.67;;;5.50;99.90;;;;;;5014292;28;20026;-71
2021/11/27 06:37:33;;;;;;;4.15;1.13;;;5.50;99.90;;;;;;5013743;28;20068;-75
2021/11/27 06:40:00;;;;;;;13.88;1.70;;;5.50;99.90;;;;;;5013967;28;20543;-72
2021/11/27 06:42:27;;;;;;;8.00;1.83;;;5.50;99.90;;;;;;5013358;28;20022;-72
2021/11/27 06:44:53;;;;;;;9.38;1.83;;;5.50;99.90;;;;;;5013654;28;20507;-73
2021/11/27 06:47:21;;;;;;;8.30;1.83;;;5.60;99.90;;;;;;5013628;28;20030;-70
2021/11/27 06:49:48;;;;;;;16.10;2.92;;;5.70;99.90;;;;;;5013805;28;20060;-71
2021/11/27 06:52:15;;;;;;;9.18;2.33;;;5.70;99.90;;;;;;5013474;28;20103;-72
2021/11/27 06:54:42;;;;;;;10.02;2.38;;;5.80;99.90;;;;;;5014023;28;20018;-71
2021/11/27 06:57:08;;;;;;;11.40;2.15;;;5.80;99.90;;;;;;5013462;28;20148;-71
2021/11/27 06:59:36;;;;;;;10.32;1.90;;;5.80;99.90;;;;;;5012175;28;20551;-73
2021/11/27 07:02:01;;;;;;;8.65;1.80;;;5.90;99.90;;;;;;5013609;28;20026;-70
2021/11/27 07:04:28;;;;;;;13.05;2.70;;;5.80;99.90;;;;;;5013374;28;20506;-74
2021/11/27 07:06:53;;;;;;;11.32;2.10;;;5.90;99.90;;;;;;5013372;28;20030;-74
2021/11/27 07:09:19;;;;;;;8.70;2.15;;;5.80;99.90;;;;;;5013358;28;20036;-70
2021/11/27 07:11:45;;;;;;;9.05;1.77;;;5.80;99.90;;;;;;5013249;28;20076;-72
2021/11/27 07:14:11;;;;;;;9.70;1.98;;;5.70;99.90;;;;;;5013330;28;20024;-71
2021/11/27 07:16:37;;;;;;;7.43;2.42;;;5.70;99.90;;;;;;5013254;28;20492;-72
2021/11/27 07:19:03;;;;;;;15.23;2.95;;;5.70;99.90;;;;;;5013325;28;20131;-72
2021/11/27 07:21:29;;;;;;;21.20;2.38;;;5.70;99.90;;;;;;5013537;28;20029;-73
2021/11/27 07:23:55;;;;;;;8.02;2.70;;;5.70;99.90;;;;;;5013580;28;20034;-74
2021/11/27 07:26:21;;;;;;;12.55;2.80;;;5.80;99.90;;;;;;5013511;28;20522;-70
2021/11/27 07:28:47;;;;;;;14.10;2.63;;;5.80;99.90;;;;;;5013221;28;20022;-72
2021/11/27 07:31:14;;;;;;;10.55;2.50;;;5.90;99.90;;;;;;5013156;28;20022;-70
2021/11/27 07:33:40;;;;;;;10.15;2.55;;;5.90;99.90;;;;;;5013353;28;20034;-73
2021/11/27 07:36:06;;;;;;;13.82;2.60;;;5.90;99.90;;;;;;5013117;28;20109;-72
2021/11/27 07:38:33;;;;;;;14.73;3.03;;;5.90;99.90;;;;;;5013115;28;20119;-72
2021/11/27 07:40:59;;;;;;;9.70;3.03;;;5.90;99.90;;;;;;5011550;28;20018;-73
2021/11/27 07:43:25;;;;;;;17.05;2.20;;;5.90;99.90;;;;;;5013002;28;20037;-74
2021/11/27 07:45:51;;;;;;;10.63;2.20;;;5.90;99.90;;;;;;5012836;28;20053;-71
2021/11/27 07:48:17;;;;;;;8.60;2.08;;;5.90;99.90;;;;;;5013280;28;20377;-71
2021/11/27 07:50:43;;;;;;;12.77;2.00;;;5.90;99.90;;;;;;5012982;28;20052;-72
2021/11/27 07:53:08;;;;;;;9.55;2.53;;;6.00;99.90;;;;;;5012853;28;20033;-71
2021/11/27 07:55:34;;;;;;;9.65;2.83;;;5.90;99.90;;;;;;5014101;28;20396;-74
2021/11/27 07:58:00;;;;;;;10.93;2.80;;;6.00;99.90;;;;;;5016871;28;20033;-73
2021/11/27 08:00:26;;;;;;;15.70;2.90;;;6.00;99.90;;;;;;5016801;28;20030;-74
2021/11/27 08:02:51;;;;;;;12.18;2.95;;;6.10;99.90;;;;;;5015204;28;20034;-72
2021/11/27 08:05:18;;;;;;;7.45;2.42;;;6.10;99.90;;;;;;5016636;28;20084;-71
2021/11/27 08:07:44;;;;;;;12.95;2.60;;;6.10;99.90;;;;;;5016411;28;20025;-70
2021/11/27 08:10:12;;;;;;;14.68;2.30;;;6.10;99.90;;;;;;5016358;28;20439;-71
2021/11/27 08:12:38;;;;;;;12.32;2.20;;;6.10;99.90;;;;;;5016697;28;20033;-71
2021/11/27 08:15:05;;;;;;;13.45;1.88;;;6.10;99.90;;;;;;5016583;28;20018;-73
2021/11/27 08:17:31;;;;;;;13.73;2.83;;;6.10;99.90;;;;;;5016246;28;20057;-74
2021/11/27 08:19:57;;;;;;;10.57;2.10;;;6.10;99.90;;;;;;5016209;28;20441;-74
2021/11/27 08:22:23;;;;;;;11.95;2.38;;;6.10;99.90;;;;;;5016141;28;20427;-71
2021/11/27 08:24:51;;;;;;;5.97;1.60;;;6.10;99.90;;;;;;5016381;28;20030;-70
2021/11/27 08:27:17;;;;;;;8.77;1.95;;;6.10;99.90;;;;;;5016065;28;20506;-71
2021/11/27 08:29:43;;;;;;;7.80;1.27;;;6.10;99.90;;;;;;5016250;28;20104;-70
2021/11/27 08:32:08;;;;;;;11.63;2.25;;;6.10;99.90;;;;;;5015832;28;20449;-71
2021/11/27 08:34:34;;;;;;;13.15;2.10;;;6.10;99.90;;;;;;5016429;28;20025;-73
2021/11/27 08:37:00;;;;;;;9.93;1.88;;;6.10;99.90;;;;;;5015841;28;20029;-73
2021/11/27 08:39:25;;;;;;;13.40;2.85;;;6.10;99.90;;;;;;5016081;28;20061;-74
2021/11/27 08:41:51;;;;;;;9.27;1.90;;;6.10;99.90;;;;;;5016175;28;20093;-70
2021/11/27 08:44:17;;;;;;;5.28;1.45;;;6.10;99.90;;;;;;5015200;28;20026;-73
2021/11/27 08:46:43;;;;;;;13.90;2.67;;;6.10;99.90;;;;;;5015996;28;20487;-71
2021/11/27 08:49:09;;;;;;;15.10;2.90;;;6.10;99.90;;;;;;5015578;28;20155;-73
2021/11/27 08:51:40;;;;;;;12.18;2.05;;;6.10;99.90;;;;;;5015863;28;20394;-71
2021/11/27 08:54:07;;;;;;;11.15;2.20;;;6.10;99.90;;;;;;5015566;28;20022;-71
2021/11/27 08:56:33;;;;;;;8.65;2.65;;;6.10;99.90;;;;;;5015800;28;20025;-74
2021/11/27 08:58:59;;;;;;;11.30;2.33;;;6.10;99.90;;;;;;5015433;28;20058;-70
2021/11/27 09:01:25;;;;;;;17.08;2.58;;;6.10;99.90;;;;;;5015368;28;20536;-71
2021/11/27 09:03:51;;;;;;;13.02;2.83;;;6.20;99.90;;;;;;5015329;28;20029;-73
2021/11/27 09:06:16;;;;;;;11.57;2.83;;;6.30;99.90;;;;;;5015310;28;20112;-74
2021/11/27 09:08:44;;;;;;;14.18;2.28;;;6.30;99.90;;;;;;5015306;28;20022;-71
2021/11/27 09:11:15;;;;;;;13.77;2.33;;;6.30;99.90;;;;;;5015462;28;20033;-70
2021/11/27 09:13:41;;;;;;;11.45;2.20;;;6.40;99.90;;;;;;5015478;28;20025;-73
2021/11/27 09:16:07;;;;;;;13.40;2.80;;;6.40;99.90;;;;;;5015147;28;20387;-72
2021/11/27 09:18:33;;;;;;;10.07;2.13;;;6.40;99.90;;;;;;5015348;28;20097;-71
2021/11/27 09:20:59;;;;;;;11.75;2.42;;;6.30;99.90;;;;;;5015035;28;20045;-72
2021/11/27 09:23:25;;;;;;;7.88;1.70;;;6.30;99.90;;;;;;5014976;28;20018;-73
2021/11/27 09:25:51;;;;;;;8.38;1.83;;;6.30;99.90;;;;;;5014933;28;20034;-71
2021/11/27 09:28:17;;;;;;;8.68;2.00;;;6.30;99.90;;;;;;5015432;28;20025;-70
2021/11/27 09:30:43;;;;;;;8.98;2.03;;;6.40;99.90;;;;;;5015132;28;20109;-72
2021/11/27 09:33:09;;;;;;;10.65;2.38;;;6.30;99.90;;;;;;5014676;28;20144;-72
2021/11/27 09:35:35;;;;;;;9.18;2.20;;;6.20;99.90;;;;;;5015007;28;20116;-74
2021/11/27 09:38:00;;;;;;;9.20;2.67;;;6.10;99.90;;;;;;5014928;28;20022;-78
2021/11/27 09:40:26;;;;;;;15.18;2.33;;;6.00;99.90;;;;;;5014719;28;20033;-76
2021/11/27 09:42:53;;;;;;;11.35;2.53;;;6.00;99.90;;;;;;5014829;28;20018;-76
2021/11/27 09:45:25;;;;;;;13.45;2.22;;;5.90;99.90;;;;;;5014651;28;20042;-77
2021/11/27 09:47:53;;;;;;;5.40;1.40;;;5.80;99.90;;;;;;5013251;28;20076;-78
2021/11/27 09:50:19;;;;;;;8.75;1.33;;;5.90;99.90;;;;;;5014504;28;20044;-73
2021/11/27 09:52:47;;;;;;;13.55;2.28;;;6.00;99.90;;;;;;5014250;28;20093;-74
2021/11/27 09:55:17;;;;;;;9.23;1.70;;;6.20;99.90;;;;;;5014391;28;20448;-73
2021/11/27 09:57:47;;;;;;;7.20;2.03;;;6.50;99.90;;;;;;5014384;28;20022;-73
2021/11/27 10:00:15;;;;;;;11.43;1.70;;;6.50;99.90;;;;;;5014875;28;20076;-70
2021/11/27 10:02:42;;;;;;;6.45;1.92;;;6.40;99.90;;;;;;5014166;28;20040;-76
2021/11/27 10:05:11;;;;;;;8.77;1.92;;;6.30;99.90;;;;;;5014412;28;20033;-75
2021/11/27 10:07:40;;;;;;;11.90;3.15;;;6.30;99.90;;;;;;5014763;28;20448;-77
2021/11/27 10:10:06;;;;;;;7.85;1.90;;;6.30;99.90;;;;;;5014151;28;20479;-81
2021/11/27 10:12:32;;;;;;;9.50;1.50;;;6.30;99.90;;;;;;5014482;28;20026;-76
2021/11/27 10:14:58;;;;;;;6.93;1.33;;;6.40;99.90;;;;;;5014379;28;20068;-80
2021/11/27 10:17:28;;;;;;;9.00;1.85;;;6.40;99.90;;;;;;5013942;28;20022;-74
2021/11/27 10:19:59;;;;;;;7.43;1.33;;;6.40;99.90;;;;;;5014564;28;20053;-74
2021/11/27 10:22:37;;;;;;;9.95;2.22;;;6.40;99.90;;;;;;5013979;28;20515;-72
2021/11/27 10:25:28;;;;;;;13.98;1.98;;;6.60;99.90;;;;;;5013846;28;20034;-72
2021/11/27 10:28:11;;;;;;;8.85;1.83;;;6.70;99.90;;;;;;5014076;28;20076;-73
2021/11/27 10:30:43;;;;;;;9.75;1.95;;;6.60;99.90;;;;;;5014167;28;20036;-78
2021/11/27 10:33:09;;;;;;;7.75;1.67;;;6.60;99.90;;;;;;5013741;28;20030;-79
2021/11/27 10:35:34;;;;;;;12.88;2.60;;;6.60;99.90;;;;;;5014145;28;20022;-78
2021/11/27 10:38:05;;;;;;;12.18;2.30;;;6.70;99.90;;;;;;5013648;28;20084;-74
2021/11/27 10:40:31;;;;;;;7.72;1.98;;;6.90;99.90;;;;;;5013744;28;20488;-71
2021/11/27 10:43:05;;;;;;;12.25;2.65;;;7.10;99.90;;;;;;5014069;28;20121;-72
2021/11/27 10:45:33;;;;;;;10.10;1.80;;;7.00;99.90;;;;;;5013504;28;20050;-73
2021/11/27 10:48:08;;;;;;;7.03;1.90;;;6.80;99.90;;;;;;5014066;28;20097;-71
2021/11/27 10:50:39;;;;;;;9.35;2.33;;;6.80;99.90;;;;;;5014038;28;20026;-73
2021/11/27 10:53:17;;;;;;;11.85;2.38;;;6.70;99.90;;;;;;5013854;28;20033;-73
2021/11/27 10:55:43;;;;;;;8.23;1.63;;;6.80;99.90;;;;;;5004618;28;20551;-73
2021/11/27 10:58:11;;;;;;;6.75;1.85;;;6.90;99.90;;;;;;4998647;28;20050;-74
2021/11/27 11:00:43;;;;;;;9.40;1.77;;;7.20;99.90;;;;;;4993831;28;20543;-72
2021/11/27 11:03:29;;;;;;;6.68;1.85;;;7.40;99.90;;;;;;4993789;28;20023;-71
2021/11/27 11:05:56;;;;;;;9.55;2.53;;;7.30;99.90;;;;;;4992924;28;20046;-73
2021/11/27 11:08:36;;;;;;;7.90;2.00;;;7.20;99.90;;;;;;4991079;28;20025;-73
2021/11/27 11:11:24;;;;;;;7.53;1.60;;;7.00;99.90;;;;;;4975551;28;20038;-72
2021/11/27 11:13:59;;;;;;;9.10;2.20;;;6.80;99.90;;;;;;4993993;28;20026;-74
2021/11/27 11:16:29;;;;;;;6.72;2.00;;;6.70;99.90;;;;;;4993744;28;20102;-74
2021/11/27 11:19:20;;;;;;;8.82;1.80;;;6.60;99.90;;;;;;4994313;28;20105;-74
2021/11/27 11:22:04;;;;;;;;;;;6.50;99.90;;;;;;4994692;28;20061;-71
2021/11/27 11:24:31;;;;;;;10.23;2.00;;;6.40;99.90;;;;;;4993643;28;19918;-73
2021/11/27 11:26:59;;;;;;;10.88;2.03;;;6.40;99.90;;;;;;4993853;28;20029;-74
2021/11/27 11:29:43;;;;;;;15.27;1.80;;;6.40;99.90;;;;;;4994570;28;20033;-73
2021/11/27 11:32:28;;;;;;;9.60;1.63;;;6.40;99.90;;;;;;4997399;28;20022;-73
2021/11/27 11:35:01;;;;;;;4.90;1.85;;;6.50;99.90;;;;;;4998042;28;20050;-71
2021/11/27 11:37:27;;;;;;;14.35;2.13;;;6.50;99.90;;;;;;4997383;28;20108;-72
2021/11/27 11:39:53;;;;;;;12.80;2.13;;;6.40;99.90;;;;;;4997339;28;20014;-74
2021/11/27 11:42:21;;;;;;;13.95;2.50;;;6.40;99.90;;;;;;4997176;28;20036;-74
2021/11/27 11:44:47;;;;;;;10.85;2.10;;;6.20;99.90;;;;;;4997064;28;20049;-72
2021/11/27 11:47:13;;;;;;;12.35;2.20;;;6.10;99.90;;;;;;4997221;28;20097;-72
2021/11/27 11:49:40;;;;;;;17.90;3.33;;;6.10;99.90;;;;;;4997214;28;20121;-74
2021/11/27 11:52:26;;;;;;;7.22;2.20;;;6.00;99.90;;;;;;4997021;28;20045;-73
2021/11/27 11:54:59;;;;;;;15.00;2.38;;;6.20;99.90;;;;;;4997092;28;20369;-74
2021/11/27 11:57:48;;;;;;;8.13;2.58;;;6.20;99.90;;;;;;4997089;28;20030;-73
2021/11/27 12:00:27;;;;;;;10.88;2.20;;;6.30;99.90;;;;;;4997300;28;20041;-72
2021/11/27 12:03:03;;;;;;;12.13;2.33;;;6.30;99.90;;;;;;4996996;28;20415;-73
2021/11/27 12:05:29;;;;;;;19.50;2.72;;;6.30;99.90;;;;;;4996895;28;20023;-72
2021/11/27 12:07:57;;;;;;;12.98;1.98;;;6.30;99.90;;;;;;4997112;28;20102;-72
2021/11/27 12:10:31;;;;;;;8.10;2.20;;;6.30;99.90;;;;;;4979290;28;20026;-72
2021/11/27 12:13:05;;;;;;;14.50;2.72;;;6.20;99.90;;;;;;4996683;28;20518;-71
2021/11/27 12:15:42;;;;;;;6.75;1.67;;;6.20;99.90;;;;;;4996673;28;20037;-72
2021/11/27 12:18:20;;;;;;;10.10;1.92;;;6.20;99.90;;;;;;4996975;28;20468;-72
2021/11/27 12:20:55;;;;;;;8.82;1.92;;;6.10;99.90;;;;;;4996610;28;20018;-74
2021/11/27 12:23:35;;;;;;;14.65;2.47;;;6.20;99.90;;;;;;4996580;28;20495;-74
2021/11/27 12:26:10;;;;;;;8.65;1.83;;;6.10;99.90;;;;;;4996849;28;20077;-72
2021/11/27 12:28:42;;;;;;;9.57;1.85;;;6.10;99.90;;;;;;4996762;28;20034;-71
2021/11/27 12:31:22;;;;;;;10.95;2.10;;;6.00;99.90;;;;;;4996722;28;20518;-72
2021/11/27 12:33:47;;;;;;;9.55;1.77;;;5.80;99.90;;;;;;4978615;28;20077;-74
2021/11/27 12:36:25;;;;;;;8.48;1.45;;;5.70;99.90;;;;;;4996361;28;20031;-72
2021/11/27 12:39:06;;;;;;;10.00;2.22;;;5.60;99.90;;;;;;4996794;28;20022;-73
2021/11/27 12:41:37;;;;;;;;;;;5.60;99.90;;;;;;4996576;28;20026;-72
2021/11/27 12:44:23;;;;;;;10.30;2.55;;;5.60;99.90;;;;;;4996275;28;19948;-71
2021/11/27 12:47:00;;;;;;;6.15;1.75;;;5.70;99.90;;;;;;4996725;28;20085;-74
2021/11/27 12:49:46;;;;;;;7.45;2.25;;;5.70;99.90;;;;;;4996074;28;20573;-73
2021/11/27 12:52:15;;;;;;;8.27;1.98;;;5.80;99.90;;;;;;4982508;28;20039;-71
2021/11/27 12:54:45;;;;;;;9.75;1.95;;;5.80;99.90;;;;;;4995997;28;20022;-74
2021/11/27 12:57:14;;;;;;;15.55;1.73;;;5.70;99.90;;;;;;4978557;28;20029;-73
2021/11/27 12:59:44;;;;;;;7.63;2.78;;;5.70;99.90;;;;;;4978490;28;20027;-73
2021/11/27 13:02:15;;;;;;;9.80;2.05;;;5.80;99.90;;;;;;4978432;28;20026;-73